createdAt,value
2022-12-17T00:01:24.989Z,-5.06
2022-12-17T00:04:10.844Z,-5.12
2022-12-17T00:06:56.839Z,-5.10
2022-12-17T00:09:48.646Z,-5.15
2022-12-17T00:12:35.783Z,-5.08
2022-12-17T00:15:21.765Z,-5.10
2022-12-17T00:18:09.058Z,-5.15
2022-12-17T00:20:55.903Z,-5.11
2022-12-17T00:23:42.371Z,-5.13
2022-12-17T00:26:28.453Z,-5.14
2022-12-17T00:29:14.148Z,-5.00
2022-12-17T00:32:00.445Z,-5.06
2022-12-17T00:34:55.866Z,-5.06
2022-12-17T00:37:42.794Z,-5.04
2022-12-17T00:40:28.694Z,-5.05
2022-12-17T00:43:21.285Z,-5.10
2022-12-17T00:46:07.872Z,-5.18
2022-12-17T00:48:53.961Z,-5.15
2022-12-17T00:51:43.517Z,-5.25
2022-12-17T00:54:29.846Z,-5.11
2022-12-17T00:57:16.111Z,-5.14
2022-12-17T01:00:02.245Z,-5.15
2022-12-17T01:02:50.506Z,-5.21
2022-12-17T01:05:42.398Z,-5.25
2022-12-17T01:08:33.330Z,-5.30
2022-12-17T01:11:20.240Z,-5.26
2022-12-17T01:14:09.454Z,-5.32
2022-12-17T01:16:56.294Z,-5.31
2022-12-17T01:19:42.568Z,-5.36
2022-12-17T01:22:29.190Z,-5.37
2022-12-17T01:25:16.358Z,-5.31
2022-12-17T01:28:02.200Z,-5.41
2022-12-17T01:30:47.458Z,-5.33
2022-12-17T01:33:33.023Z,-5.34
2022-12-17T01:36:21.894Z,-5.35
2022-12-17T01:39:08.014Z,-5.36
2022-12-17T01:41:55.046Z,-5.24
2022-12-17T01:45:07.110Z,-5.24
2022-12-17T01:47:56.321Z,-5.22
2022-12-17T01:50:43.974Z,-5.25
2022-12-17T01:53:29.956Z,-5.25
2022-12-17T01:56:17.546Z,-5.22
2022-12-17T01:59:07.871Z,-5.24
2022-12-17T02:01:54.381Z,-5.18
2022-12-17T02:04:42.404Z,-5.18
2022-12-17T02:07:39.105Z,-5.09
2022-12-17T02:10:35.288Z,-5.09
2022-12-17T02:13:26.043Z,-5.00
2022-12-17T02:16:34.512Z,-5.01
2022-12-17T02:19:25.046Z,-5.07
2022-12-17T02:22:14.080Z,-5.10
2022-12-17T02:25:05.895Z,-5.04
2022-12-17T02:27:54.890Z,-5.07
2022-12-17T02:30:40.887Z,-5.13
2022-12-17T02:33:26.688Z,-5.22
2022-12-17T02:36:15.319Z,-5.23
2022-12-17T02:39:01.237Z,-5.32
2022-12-17T02:41:50.014Z,-5.30
2022-12-17T02:44:40.535Z,-5.25
2022-12-17T02:47:28.398Z,-5.48
2022-12-17T02:50:14.912Z,-5.48
2022-12-17T02:53:05.753Z,-5.47
2022-12-17T02:55:48.328Z,-5.60
2022-12-17T02:58:34.783Z,-5.58
2022-12-17T03:01:21.959Z,-5.57
2022-12-17T03:04:07.739Z,-5.61
2022-12-17T03:06:53.623Z,-5.64
2022-12-17T03:09:40.013Z,-5.65
2022-12-17T03:12:25.976Z,-5.54
2022-12-17T03:15:12.124Z,-5.64
2022-12-17T03:17:59.146Z,-5.57
2022-12-17T03:20:44.945Z,-5.63
2022-12-17T03:23:30.976Z,-5.57
2022-12-17T03:26:17.850Z,-5.65
2022-12-17T03:29:03.468Z,-5.61
2022-12-17T03:31:49.343Z,-5.68
2022-12-17T03:34:45.328Z,-5.64
2022-12-17T03:37:31.061Z,-5.70
2022-12-17T03:40:16.618Z,-5.71
2022-12-17T03:43:02.926Z,-5.63
2022-12-17T03:46:03.512Z,-5.61
2022-12-17T03:48:51.911Z,-5.55
2022-12-17T03:51:39.242Z,-5.64
2022-12-17T03:54:24.985Z,-5.64
2022-12-17T03:57:15.898Z,-5.65
2022-12-17T04:00:02.648Z,-5.53
2022-12-17T04:02:58.857Z,-5.55
2022-12-17T04:05:45.231Z,-5.58
2022-12-17T04:08:32.476Z,-5.68
2022-12-17T04:11:17.820Z,-5.62
2022-12-17T04:14:05.996Z,-5.62
2022-12-17T04:16:52.005Z,-5.67
2022-12-17T04:19:38.394Z,-5.76
2022-12-17T04:22:24.814Z,-5.75
2022-12-17T04:25:08.351Z,-5.74
2022-12-17T04:27:54.391Z,-5.75
2022-12-17T04:30:40.441Z,-5.76
2022-12-17T04:33:26.102Z,-5.72
2022-12-17T04:36:14.549Z,-5.80
2022-12-17T04:39:00.582Z,-5.83
2022-12-17T04:41:47.661Z,-5.81
2022-12-17T04:44:43.683Z,-5.84
2022-12-17T04:47:34.793Z,-5.86
2022-12-17T04:50:20.542Z,-5.83
2022-12-17T04:53:11.138Z,-5.78
2022-12-17T04:55:57.930Z,-5.79
2022-12-17T04:58:47.930Z,-5.79
2022-12-17T05:01:34.414Z,-5.78
2022-12-17T05:04:20.804Z,-5.73
2022-12-17T05:07:06.580Z,-5.77
2022-12-17T05:09:56.257Z,-5.77
2022-12-17T05:12:42.209Z,-5.64
2022-12-17T05:15:30.566Z,-5.66
2022-12-17T05:18:23.608Z,-5.69
2022-12-17T05:21:26.257Z,-5.62
2022-12-17T05:24:15.582Z,-5.68
2022-12-17T05:27:01.548Z,-5.64
2022-12-17T05:29:47.399Z,-5.64
2022-12-17T05:32:34.275Z,-5.75
2022-12-17T05:35:20.352Z,-5.76
2022-12-17T05:38:06.467Z,-5.75
2022-12-17T05:41:02.809Z,-5.78
2022-12-17T05:43:48.640Z,-5.72
2022-12-17T05:46:44.191Z,-5.73
2022-12-17T05:49:31.202Z,-5.75
2022-12-17T05:52:18.254Z,-5.73
2022-12-17T05:55:04.629Z,-5.78
2022-12-17T05:57:56.395Z,-5.68
2022-12-17T06:00:42.399Z,-5.74
2022-12-17T06:03:34.487Z,-5.59
2022-12-17T06:06:22.046Z,-5.66
2022-12-17T06:09:08.113Z,-5.60
2022-12-17T06:11:58.005Z,-5.66
2022-12-17T06:14:48.488Z,-5.69
2022-12-17T06:17:34.200Z,-5.65
2022-12-17T06:20:21.301Z,-5.65
2022-12-17T06:23:19.428Z,-5.63
2022-12-17T06:26:06.344Z,-5.65
2022-12-17T06:28:51.729Z,-5.73
2022-12-17T06:31:41.008Z,-5.71
2022-12-17T06:34:27.603Z,-5.66
2022-12-17T06:37:13.421Z,-5.70
2022-12-17T06:40:00.431Z,-5.64
2022-12-17T06:42:46.543Z,-5.65
2022-12-17T06:45:32.702Z,-5.55
2022-12-17T06:48:24.155Z,-5.68
2022-12-17T06:51:14.593Z,-5.66
2022-12-17T06:54:01.274Z,-5.73
2022-12-17T06:56:48.374Z,-5.80
2022-12-17T06:59:34.313Z,-5.74
2022-12-17T07:02:22.090Z,-5.85
2022-12-17T07:05:08.750Z,-5.75
2022-12-17T07:07:56.102Z,-5.75
2022-12-17T07:10:43.307Z,-5.80
2022-12-17T07:13:30.659Z,-5.73
2022-12-17T07:16:16.626Z,-5.71
2022-12-17T07:19:02.531Z,-5.64
2022-12-17T07:21:50.090Z,-5.74
2022-12-17T07:24:39.013Z,-5.69
2022-12-17T07:27:27.006Z,-5.79
2022-12-17T07:30:14.110Z,-5.66
2022-12-17T07:33:00.272Z,-5.75
2022-12-17T07:35:46.372Z,-5.73
2022-12-17T07:38:32.660Z,-5.69
2022-12-17T07:41:20.532Z,-5.71
2022-12-17T07:44:10.537Z,-5.72
2022-12-17T07:47:00.512Z,-5.60
2022-12-17T07:49:46.480Z,-5.68
2022-12-17T07:52:32.477Z,-5.56
2022-12-17T07:55:18.737Z,-5.57
2022-12-17T07:58:04.872Z,-5.43
2022-12-17T08:00:51.255Z,-5.53
2022-12-17T08:03:39.241Z,-5.44
2022-12-17T08:06:25.816Z,-5.40
2022-12-17T08:09:11.971Z,-5.31
2022-12-17T08:11:57.900Z,-5.35
2022-12-17T08:14:44.049Z,-5.28
2022-12-17T08:17:38.406Z,-5.22
2022-12-17T08:20:39.343Z,-5.05
2022-12-17T08:23:25.548Z,-5.09
2022-12-17T08:26:13.948Z,-5.05
2022-12-17T08:28:59.981Z,-5.15
2022-12-17T08:31:46.985Z,-5.14
2022-12-17T08:34:33.175Z,-5.12
2022-12-17T08:37:20.607Z,-5.12
2022-12-17T08:40:06.526Z,-5.17
2022-12-17T08:42:52.449Z,-5.17
2022-12-17T08:45:38.707Z,-4.96
2022-12-17T08:48:26.137Z,-5.00
2022-12-17T08:51:13.216Z,-5.06
2022-12-17T08:54:04.906Z,-5.01
2022-12-17T08:56:51.258Z,-5.05
2022-12-17T08:59:38.620Z,-5.08
2022-12-17T09:02:25.154Z,-4.96
2022-12-17T09:05:11.583Z,-5.08
2022-12-17T09:08:07.457Z,-5.01
2022-12-17T09:10:56.087Z,-4.93
2022-12-17T09:13:45.264Z,-5.00
2022-12-17T09:16:31.326Z,-4.88
2022-12-17T09:19:17.571Z,-4.91
2022-12-17T09:22:03.789Z,-4.89
2022-12-17T09:24:49.796Z,-4.81
2022-12-17T09:27:47.185Z,-4.90
2022-12-17T09:30:33.155Z,-4.67
2022-12-17T09:33:19.540Z,-4.52
2022-12-17T09:36:05.886Z,-4.68
2022-12-17T09:38:51.925Z,-4.63
2022-12-17T09:41:44.907Z,-4.63
2022-12-17T09:44:41.319Z,-4.66
2022-12-17T09:47:40.531Z,-4.56
2022-12-17T09:50:38.084Z,-4.65
2022-12-17T09:53:36.949Z,-4.58
2022-12-17T09:56:28.265Z,-4.70
2022-12-17T09:59:38.245Z,-4.66
2022-12-17T10:02:31.719Z,-4.58
2022-12-17T10:05:17.806Z,-4.62
2022-12-17T10:08:05.483Z,-4.67
2022-12-17T10:10:52.062Z,-4.69
2022-12-17T10:13:40.061Z,-4.72
2022-12-17T10:16:45.773Z,-4.74
2022-12-17T10:19:36.153Z,-4.72
2022-12-17T10:22:26.659Z,-4.90
2022-12-17T10:25:12.810Z,-4.84
2022-12-17T10:27:58.881Z,-4.88
2022-12-17T10:30:46.031Z,-4.81
2022-12-17T10:33:38.387Z,-4.75
2022-12-17T10:36:36.904Z,-4.74
2022-12-17T10:39:25.453Z,-4.75
2022-12-17T10:42:13.562Z,-4.77
2022-12-17T10:44:59.608Z,-4.71
2022-12-17T10:47:49.530Z,-4.72
2022-12-17T10:50:41.344Z,-4.65
2022-12-17T10:53:36.913Z,-4.76
2022-12-17T10:56:25.136Z,-4.57
2022-12-17T10:59:25.787Z,-4.62
2022-12-17T11:02:16.815Z,-4.50
2022-12-17T11:05:10.435Z,-4.64
2022-12-17T11:07:59.849Z,-4.51
2022-12-17T11:10:50.791Z,-4.62
2022-12-17T11:13:42.771Z,-4.69
2022-12-17T11:16:41.888Z,-4.72
2022-12-17T11:19:51.601Z,-4.71
2022-12-17T11:22:42.775Z,-4.77
2022-12-17T11:25:45.418Z,-4.77
2022-12-17T11:28:40.741Z,-4.80
2022-12-17T11:31:59.091Z,-4.86
2022-12-17T11:34:53.214Z,-4.80
2022-12-17T11:37:45.716Z,-4.69
2022-12-17T11:40:43.822Z,-4.51
2022-12-17T11:43:40.996Z,-4.66
2022-12-17T11:46:41.805Z,-4.51
2022-12-17T11:49:37.689Z,-4.55
2022-12-17T11:52:28.297Z,-4.65
2022-12-17T11:55:21.541Z,-4.55
2022-12-17T11:58:20.470Z,-4.42
2022-12-17T12:01:20.241Z,-4.51
2022-12-17T12:04:17.537Z,-4.45
2022-12-17T12:07:26.486Z,-4.48
2022-12-17T12:10:17.058Z,-4.47
2022-12-17T12:13:14.405Z,-4.40
2022-12-17T12:16:06.695Z,-4.44
2022-12-17T12:19:02.073Z,-4.44
2022-12-17T12:22:00.573Z,-4.51
2022-12-17T12:25:12.509Z,-4.77
2022-12-17T12:28:11.963Z,-4.80
2022-12-17T12:31:05.090Z,-4.73
2022-12-17T12:33:56.795Z,-4.77
2022-12-17T12:36:44.613Z,-4.84
2022-12-17T12:39:32.430Z,-4.88
2022-12-17T12:42:21.156Z,-4.76
2022-12-17T12:45:17.486Z,-4.88
2022-12-17T12:48:06.458Z,-4.85
2022-12-17T12:51:02.231Z,-4.77
2022-12-17T12:53:48.567Z,-4.81
2022-12-17T12:56:47.372Z,-4.84
2022-12-17T12:59:46.876Z,-4.90
2022-12-17T13:02:43.732Z,-4.77
2022-12-17T13:05:36.681Z,-4.83
2022-12-17T13:08:23.431Z,-4.80
2022-12-17T13:10:54.873Z,-4.71
2022-12-17T13:13:35.771Z,-4.75
2022-12-17T13:16:19.742Z,-4.78
2022-12-17T13:18:52.263Z,-4.66
2022-12-17T13:21:27.676Z,-4.72
2022-12-17T13:23:56.134Z,-4.75
2022-12-17T13:26:33.184Z,-4.82
2022-12-17T13:29:04.993Z,-4.72
2022-12-17T13:31:46.384Z,-4.72
2022-12-17T13:34:21.598Z,-4.71
2022-12-17T13:36:56.016Z,-4.77
2022-12-17T13:39:38.786Z,-4.68
2022-12-17T13:42:16.118Z,-4.69
2022-12-17T13:44:49.372Z,-4.66
2022-12-17T13:47:25.492Z,-4.69
2022-12-17T13:50:32.360Z,-4.78
2022-12-17T13:52:46.818Z,-4.82
2022-12-17T13:55:21.249Z,-4.87
2022-12-17T13:57:51.551Z,-4.80
2022-12-17T14:00:23.314Z,-4.71
2022-12-17T14:02:54.575Z,-4.82
2022-12-17T14:05:27.563Z,-4.81
2022-12-17T14:07:59.096Z,-4.84
2022-12-17T14:10:39.545Z,-4.87
2022-12-17T14:13:08.735Z,-4.87
2022-12-17T14:15:38.230Z,-4.84
2022-12-17T14:18:07.850Z,-4.82
2022-12-17T14:20:38.076Z,-4.97
2022-12-17T14:23:08.856Z,-4.87
2022-12-17T14:25:42.208Z,-4.84
2022-12-17T14:28:25.227Z,-5.01
2022-12-17T14:31:25.732Z,-4.86
2022-12-17T14:33:46.749Z,-4.84
2022-12-17T14:36:22.522Z,-4.82
2022-12-17T14:38:54.405Z,-4.88
2022-12-17T14:41:41.023Z,-4.75
2022-12-17T14:44:21.514Z,-4.82
2022-12-17T14:46:50.643Z,-4.79
2022-12-17T14:49:20.580Z,-4.80
2022-12-17T14:51:50.936Z,-4.79
2022-12-17T14:54:22.254Z,-4.77
2022-12-17T14:56:51.219Z,-4.73
2022-12-17T14:59:33.664Z,-4.87
2022-12-17T15:02:06.055Z,-4.76
2022-12-17T15:04:37.254Z,-4.89
2022-12-17T15:07:10.945Z,-4.80
2022-12-17T15:09:44.613Z,-4.82
2022-12-17T15:12:13.243Z,-4.94
2022-12-17T15:14:44.102Z,-4.94
2022-12-17T15:17:13.837Z,-4.86
2022-12-17T15:19:42.501Z,-4.78
2022-12-17T15:22:17.739Z,-4.82
2022-12-17T15:24:50.902Z,-4.93
2022-12-17T15:27:21.440Z,-4.92
2022-12-17T15:29:50.110Z,-4.91
2022-12-17T15:32:24.999Z,-4.89
2022-12-17T15:34:56.254Z,-5.00
2022-12-17T15:37:29.257Z,-5.21
2022-12-17T15:40:00.789Z,-5.08
2022-12-17T15:42:46.878Z,-5.11
2022-12-17T15:45:18.359Z,-5.01
2022-12-17T15:47:47.460Z,-5.01
2022-12-17T15:50:22.778Z,-5.10
2022-12-17T15:52:56.943Z,-5.07
2022-12-17T15:55:26.175Z,-5.14
2022-12-17T15:57:54.657Z,-5.05
2022-12-17T16:00:24.586Z,-5.27
2022-12-17T16:02:57.707Z,-5.10
2022-12-17T16:05:27.096Z,-5.00
2022-12-17T16:08:03.221Z,-5.06
2022-12-17T16:10:39.698Z,-4.95
2022-12-17T16:13:22.042Z,-5.16
2022-12-17T16:16:03.932Z,-4.93
2022-12-17T16:18:35.438Z,-4.98
2022-12-17T16:21:16.658Z,-4.95
2022-12-17T16:23:48.072Z,-4.98
2022-12-17T16:26:19.573Z,-5.01
2022-12-17T16:28:48.238Z,-5.01
2022-12-17T16:31:19.039Z,-4.97
2022-12-17T16:33:49.575Z,-4.94
2022-12-17T16:36:19.991Z,-4.99
2022-12-17T16:39:02.409Z,-4.91
2022-12-17T16:41:31.168Z,-4.91
2022-12-17T16:44:01.155Z,-4.88
2022-12-17T16:46:34.723Z,-4.92
2022-12-17T16:49:10.379Z,-4.97
2022-12-17T16:51:42.163Z,-4.94
2022-12-17T16:54:37.215Z,-5.09
2022-12-17T16:57:05.606Z,-4.92
2022-12-17T16:59:37.401Z,-5.21
2022-12-17T17:02:10.702Z,-5.15
2022-12-17T17:04:44.552Z,-5.20
2022-12-17T17:07:19.430Z,-5.06
2022-12-17T17:09:52.122Z,-5.04
2022-12-17T17:12:31.127Z,-5.13
2022-12-17T17:15:18.531Z,-5.27
2022-12-17T17:18:01.494Z,-5.15
2022-12-17T17:20:35.912Z,-4.95
2022-12-17T17:23:04.463Z,-5.10
2022-12-17T17:25:57.315Z,-5.22
2022-12-17T17:28:26.260Z,-5.22
2022-12-17T17:31:01.327Z,-5.20
2022-12-17T17:33:31.127Z,-5.13
2022-12-17T17:36:05.571Z,-5.13
2022-12-17T17:38:35.797Z,-5.13
2022-12-17T17:41:10.610Z,-5.13
2022-12-17T17:43:39.468Z,-5.21
2022-12-17T17:46:13.164Z,-5.21
2022-12-17T17:48:45.074Z,-5.27
2022-12-17T17:51:38.872Z,-5.20
2022-12-17T17:54:14.470Z,-5.13
2022-12-17T17:56:45.656Z,-5.14
2022-12-17T17:59:20.196Z,-5.09
2022-12-17T18:01:52.446Z,-5.30
2022-12-17T18:04:25.686Z,-5.23
2022-12-17T18:09:48.970Z,-5.14
2022-12-17T18:12:39.310Z,-5.24
2022-12-17T18:15:17.690Z,-5.41
2022-12-17T18:17:48.580Z,-5.33
2022-12-17T18:20:17.531Z,-5.27
2022-12-17T18:22:48.166Z,-5.33
2022-12-17T18:25:20.197Z,-5.18
2022-12-17T18:27:53.948Z,-5.24
2022-12-17T18:30:26.161Z,-5.27
2022-12-17T18:32:54.840Z,-5.22
2022-12-17T18:35:23.785Z,-5.27
2022-12-17T18:37:54.399Z,-5.30
2022-12-17T18:40:23.027Z,-5.29
2022-12-17T18:43:10.183Z,-5.30
2022-12-17T18:45:45.534Z,-5.32
2022-12-17T18:48:17.837Z,-5.41
2022-12-17T18:50:49.597Z,-5.43
2022-12-17T18:53:19.394Z,-5.25
2022-12-17T18:55:48.162Z,-5.31
2022-12-17T18:58:21.529Z,-5.43
2022-12-17T19:00:52.857Z,-5.22
2022-12-17T19:03:23.306Z,-5.37
2022-12-17T19:05:54.353Z,-5.23
2022-12-17T19:08:23.810Z,-5.31
2022-12-17T19:10:58.290Z,-5.25
2022-12-17T19:13:31.449Z,-5.37
2022-12-17T19:16:06.312Z,-5.32
2022-12-17T19:18:39.201Z,-5.30
2022-12-17T19:24:04.933Z,-5.42
2022-12-17T19:26:35.332Z,-5.44
2022-12-17T19:29:09.123Z,-5.44
2022-12-17T19:31:38.265Z,-5.37
2022-12-17T19:34:11.353Z,-5.39
2022-12-17T19:36:43.534Z,-5.50
2022-12-17T19:39:15.898Z,-5.42
2022-12-17T19:41:46.691Z,-5.32
2022-12-17T19:44:22.955Z,-5.44
2022-12-17T19:46:53.307Z,-5.33
2022-12-17T19:49:22.002Z,-5.39
2022-12-17T19:51:50.748Z,-5.44
2022-12-17T19:54:21.167Z,-5.45
2022-12-17T19:56:52.576Z,-5.39
2022-12-17T19:59:22.610Z,-5.40
2022-12-17T20:01:51.600Z,-5.30
2022-12-17T20:04:21.013Z,-5.40
2022-12-17T20:06:52.406Z,-5.37
2022-12-17T20:09:20.989Z,-5.34
2022-12-17T20:11:55.221Z,-5.34
2022-12-17T20:14:29.377Z,-5.40
2022-12-17T20:17:05.260Z,-5.38
2022-12-17T20:19:35.760Z,-5.23
2022-12-17T20:22:07.899Z,-5.29
2022-12-17T20:24:37.504Z,-5.31
2022-12-17T20:27:11.394Z,-5.33
2022-12-17T20:29:45.286Z,-5.45
2022-12-17T20:32:14.537Z,-5.42
2022-12-17T20:34:43.262Z,-5.34
2022-12-17T20:37:11.880Z,-5.41
2022-12-17T20:39:43.233Z,-5.49
2022-12-17T20:42:12.279Z,-5.52
2022-12-17T20:44:47.448Z,-5.59
2022-12-17T20:47:23.517Z,-5.50
2022-12-17T20:49:55.226Z,-5.58
2022-12-17T20:52:24.780Z,-5.52
2022-12-17T20:54:53.659Z,-5.54
2022-12-17T20:57:22.521Z,-5.57
2022-12-17T20:59:52.898Z,-5.66
2022-12-17T21:02:23.979Z,-5.62
2022-12-17T21:04:57.624Z,-5.66
2022-12-17T21:07:26.280Z,-5.68
2022-12-17T21:09:56.906Z,-5.75
2022-12-17T21:12:47.653Z,-5.69
2022-12-17T21:15:17.765Z,-5.76
2022-12-17T21:17:46.447Z,-5.63
2022-12-17T21:20:15.551Z,-5.69
2022-12-17T21:22:44.563Z,-5.73
2022-12-17T21:25:17.273Z,-5.70
2022-12-17T21:27:48.960Z,-5.71
2022-12-17T21:30:37.172Z,-5.86
2022-12-17T21:33:05.892Z,-5.88
2022-12-17T21:35:35.116Z,-5.75
2022-12-17T21:38:04.392Z,-5.68
2022-12-17T21:40:41.892Z,-5.79
2022-12-17T21:43:11.514Z,-5.78
2022-12-17T21:45:43.137Z,-5.68
2022-12-17T21:48:14.982Z,-5.64
2022-12-17T21:50:44.360Z,-5.66
2022-12-17T21:53:15.565Z,-5.69
2022-12-17T21:55:44.404Z,-5.84
2022-12-17T21:58:19.311Z,-5.68
2022-12-17T22:00:53.991Z,-5.77
2022-12-17T22:03:22.451Z,-5.70
2022-12-17T22:05:51.114Z,-5.70
2022-12-17T22:08:20.054Z,-5.73
2022-12-17T22:10:50.178Z,-5.78
2022-12-17T22:13:38.866Z,-5.72
2022-12-17T22:16:13.032Z,-5.62
2022-12-17T22:18:41.711Z,-5.66
2022-12-17T22:21:10.339Z,-5.63
2022-12-17T22:23:38.791Z,-5.60
2022-12-17T22:26:09.891Z,-5.63
2022-12-17T22:28:39.216Z,-5.66
2022-12-17T22:31:29.186Z,-5.76
2022-12-17T22:34:56.222Z,-5.71
2022-12-17T22:39:18.463Z,-5.72
2022-12-17T22:43:51.395Z,-5.79
2022-12-17T22:44:30.262Z,-5.71
2022-12-17T22:45:29.861Z,-5.71
2022-12-17T22:48:02.201Z,-5.74
2022-12-17T22:50:36.778Z,-5.72
2022-12-17T22:53:13.348Z,-5.80
2022-12-17T22:55:42.573Z,-5.78
2022-12-17T22:58:11.385Z,-5.77
2022-12-17T23:00:39.999Z,-5.94
2022-12-17T23:03:09.923Z,-5.89
2022-12-17T23:05:38.702Z,-5.82
2022-12-17T23:08:11.509Z,-5.84
2022-12-17T23:10:42.041Z,-5.84
2022-12-17T23:13:10.487Z,-5.89
2022-12-17T23:15:43.208Z,-6.04
2022-12-17T23:18:15.677Z,-5.89
2022-12-17T23:20:44.381Z,-5.94
2022-12-17T23:23:15.594Z,-5.93
2022-12-17T23:25:43.970Z,-5.94
2022-12-17T23:28:12.488Z,-5.98
2022-12-17T23:30:41.127Z,-5.98
2022-12-17T23:33:09.501Z,-5.95
2022-12-17T23:35:39.357Z,-5.96
2022-12-17T23:38:07.806Z,-6.02
2022-12-17T23:40:36.110Z,-5.99
2022-12-17T23:43:04.478Z,-6.03
2022-12-17T23:45:32.961Z,-6.02
2022-12-17T23:48:06.825Z,-5.99
2022-12-17T23:50:35.158Z,-6.01
2022-12-17T23:53:05.140Z,-6.02
2022-12-17T23:55:36.961Z,-6.02
2022-12-17T23:58:05.574Z,-6.03
